sensor_id;sensor_type;location;lat;lon;timestamp;temperature;humidity
51884;DHT22;37915;53.254;6.598;2023-03-01T00:02:05;0.80;99.90
51884;DHT22;37915;53.254;6.598;2023-03-01T00:04:31;0.80;99.90
51884;DHT22;37915;53.254;6.598;2023-03-01T00:06:57;0.00;99.90
51884;DHT22;37915;53.254;6.598;2023-03-01T00:09:23;1.10;99.90
51884;DHT22;37915;53.254;6.598;2023-03-01T00:11:48;0.00;99.90
51884;DHT22;37915;53.254;6.598;2023-03-01T00:14:14;1.50;99.90
51884;DHT22;37915;53.254;6.598;2023-03-01T00:16:42;0.00;99.90
51884;DHT22;37915;53.254;6.598;2023-03-01T00:19:11;-1.00;99.90
51884;DHT22;37915;53.254;6.598;2023-03-01T00:21:37;0.80;99.90
51884;DHT22;37915;53.254;6.598;2023-03-01T00:24:02;0.20;99.90
51884;DHT22;37915;53.254;6.598;2023-03-01T00:26:28;-0.10;99.90
51884;DHT22;37915;53.254;6.598;2023-03-01T00:28:54;1.00;99.90
51884;DHT22;37915;53.254;6.598;2023-03-01T00:31:24;1.30;99.90
51884;DHT22;37915;53.254;6.598;2023-03-01T00:33:54;1.30;99.90
51884;DHT22;37915;53.254;6.598;2023-03-01T00:36:23;-0.20;99.90
51884;DHT22;37915;53.254;6.598;2023-03-01T00:38:49;0.80;99.90
51884;DHT22;37915;53.254;6.598;2023-03-01T00:41:16;-0.10;99.90
51884;DHT22;37915;53.254;6.598;2023-03-01T00:43:42;0.00;99.90
51884;DHT22;37915;53.254;6.598;2023-03-01T00:46:09;0.70;99.90
51884;DHT22;37915;53.254;6.598;2023-03-01T00:48:35;-0.20;99.90
51884;DHT22;37915;53.254;6.598;2023-03-01T00:51:08;1.20;99.90
51884;DHT22;37915;53.254;6.598;2023-03-01T00:53:34;-0.30;99.90
51884;DHT22;37915;53.254;6.598;2023-03-01T00:55:59;1.10;99.90
51884;DHT22;37915;53.254;6.598;2023-03-01T00:58:25;-0.30;99.90
51884;DHT22;37915;53.254;6.598;2023-03-01T01:00:51;-0.40;99.90
51884;DHT22;37915;53.254;6.598;2023-03-01T01:03:18;0.50;99.90
51884;DHT22;37915;53.254;6.598;2023-03-01T01:05:43;-0.60;99.90
51884;DHT22;37915;53.254;6.598;2023-03-01T01:08:09;-0.60;99.90
51884;DHT22;37915;53.254;6.598;2023-03-01T01:10:34;-0.70;99.90
51884;DHT22;37915;53.254;6.598;2023-03-01T01:13:00;-0.60;99.90
51884;DHT22;37915;53.254;6.598;2023-03-01T01:15:26;-0.30;99.90
51884;DHT22;37915;53.254;6.598;2023-03-01T01:17:51;-0.40;99.90
51884;DHT22;37915;53.254;6.598;2023-03-01T01:20:17;-0.80;99.90
51884;DHT22;37915;53.254;6.598;2023-03-01T01:22:43;-0.80;99.90
51884;DHT22;37915;53.254;6.598;2023-03-01T01:25:09;-0.20;99.90
51884;DHT22;37915;53.254;6.598;2023-03-01T01:27:34;-0.80;99.90
51884;DHT22;37915;53.254;6.598;2023-03-01T01:30:00;-0.10;99.90
51884;DHT22;37915;53.254;6.598;2023-03-01T01:32:25;-0.90;99.90
51884;DHT22;37915;53.254;6.598;2023-03-01T01:34:51;-0.90;99.90
51884;DHT22;37915;53.254;6.598;2023-03-01T01:37:17;-0.30;99.90
51884;DHT22;37915;53.254;6.598;2023-03-01T01:39:42;0.00;99.90
51884;DHT22;37915;53.254;6.598;2023-03-01T01:42:15;-0.90;99.90
51884;DHT22;37915;53.254;6.598;2023-03-01T01:44:42;-1.00;99.90
51884;DHT22;37915;53.254;6.598;2023-03-01T01:47:13;-0.80;99.90
51884;DHT22;37915;53.254;6.598;2023-03-01T01:49:49;0.20;99.90
51884;DHT22;37915;53.254;6.598;2023-03-01T01:52:17;-1.10;99.90
51884;DHT22;37915;53.254;6.598;2023-03-01T01:54:56;-1.10;99.90
51884;DHT22;37915;53.254;6.598;2023-03-01T01:57:25;-1.10;99.90
51884;DHT22;37915;53.254;6.598;2023-03-01T01:59:53;-1.10;99.90
51884;DHT22;37915;53.254;6.598;2023-03-01T02:02:19;-1.10;99.90
51884;DHT22;37915;53.254;6.598;2023-03-01T02:04:46;-0.30;99.90
51884;DHT22;37915;53.254;6.598;2023-03-01T02:07:16;-1.10;99.90
51884;DHT22;37915;53.254;6.598;2023-03-01T02:09:43;-1.10;99.90
51884;DHT22;37915;53.254;6.598;2023-03-01T02:12:10;-0.40;99.90
51884;DHT22;37915;53.254;6.598;2023-03-01T02:14:36;-1.20;99.90
51884;DHT22;37915;53.254;6.598;2023-03-01T02:17:01;-1.30;99.90
51884;DHT22;37915;53.254;6.598;2023-03-01T02:19:31;-0.70;99.90
51884;DHT22;37915;53.254;6.598;2023-03-01T02:22:17;-0.20;99.90
51884;DHT22;37915;53.254;6.598;2023-03-01T02:27:09;-0.90;99.90
51884;DHT22;37915;53.254;6.598;2023-03-01T02:29:35;-0.90;99.90
51884;DHT22;37915;53.254;6.598;2023-03-01T02:32:02;-1.50;99.90
51884;DHT22;37915;53.254;6.598;2023-03-01T02:34:28;-1.60;99.90
51884;DHT22;37915;53.254;6.598;2023-03-01T02:36:56;-1.70;99.90
51884;DHT22;37915;53.254;6.598;2023-03-01T02:39:26;-1.70;99.90
51884;DHT22;37915;53.254;6.598;2023-03-01T02:41:53;-1.70;99.90
51884;DHT22;37915;53.254;6.598;2023-03-01T02:44:20;-1.70;99.90
51884;DHT22;37915;53.254;6.598;2023-03-01T02:46:50;-1.70;99.90
51884;DHT22;37915;53.254;6.598;2023-03-01T02:57:13;-1.70;99.90
51884;DHT22;37915;53.254;6.598;2023-03-01T02:59:39;-0.50;99.90
51884;DHT22;37915;53.254;6.598;2023-03-01T03:02:06;-1.70;99.90
51884;DHT22;37915;53.254;6.598;2023-03-01T03:04:31;-0.80;99.90
51884;DHT22;37915;53.254;6.598;2023-03-01T03:06:57;-1.80;99.90
51884;DHT22;37915;53.254;6.598;2023-03-01T03:09:23;-1.80;99.90
51884;DHT22;37915;53.254;6.598;2023-03-01T03:11:48;-1.80;99.90
51884;DHT22;37915;53.254;6.598;2023-03-01T03:14:15;-1.60;99.90
51884;DHT22;37915;53.254;6.598;2023-03-01T03:16:42;-1.80;99.90
51884;DHT22;37915;53.254;6.598;2023-03-01T03:19:07;-1.50;99.90
51884;DHT22;37915;53.254;6.598;2023-03-01T03:21:33;-1.00;99.90
51884;DHT22;37915;53.254;6.598;2023-03-01T03:23:59;-1.70;99.90
51884;DHT22;37915;53.254;6.598;2023-03-01T03:26:25;-1.30;99.90
51884;DHT22;37915;53.254;6.598;2023-03-01T03:28:50;-1.70;99.90
51884;DHT22;37915;53.254;6.598;2023-03-01T03:31:16;-1.70;99.90
51884;DHT22;37915;53.254;6.598;2023-03-01T03:33:41;-1.70;99.90
51884;DHT22;37915;53.254;6.598;2023-03-01T03:36:07;-1.00;99.90
51884;DHT22;37915;53.254;6.598;2023-03-01T03:38:38;-1.70;99.90
51884;DHT22;37915;53.254;6.598;2023-03-01T03:41:05;-0.90;99.90
51884;DHT22;37915;53.254;6.598;2023-03-01T03:43:33;-1.70;99.90
51884;DHT22;37915;53.254;6.598;2023-03-01T03:45:59;-1.70;99.90
51884;DHT22;37915;53.254;6.598;2023-03-01T03:48:25;-0.90;99.90
51884;DHT22;37915;53.254;6.598;2023-03-01T03:50:52;-1.80;99.90
51884;DHT22;37915;53.254;6.598;2023-03-01T03:53:18;-0.30;99.90
51884;DHT22;37915;53.254;6.598;2023-03-01T03:55:44;-0.90;99.90
51884;DHT22;37915;53.254;6.598;2023-03-01T03:58:10;-1.90;99.90
51884;DHT22;37915;53.254;6.598;2023-03-01T04:00:37;-1.90;99.90
51884;DHT22;37915;53.254;6.598;2023-03-01T04:03:03;-0.70;99.90
51884;DHT22;37915;53.254;6.598;2023-03-01T04:05:28;-2.10;99.90
51884;DHT22;37915;53.254;6.598;2023-03-01T04:07:54;-2.20;99.90
51884;DHT22;37915;53.254;6.598;2023-03-01T04:10:34;-2.30;99.90
51884;DHT22;37915;53.254;6.598;2023-03-01T04:12:59;-2.40;99.90
51884;DHT22;37915;53.254;6.598;2023-03-01T04:15:25;-2.50;99.90
51884;DHT22;37915;53.254;6.598;2023-03-01T04:17:52;-1.30;99.90
51884;DHT22;37915;53.254;6.598;2023-03-01T04:20:19;-1.80;99.90
51884;DHT22;37915;53.254;6.598;2023-03-01T04:23:00;-2.40;99.90
51884;DHT22;37915;53.254;6.598;2023-03-01T04:28:06;-1.30;99.90
51884;DHT22;37915;53.254;6.598;2023-03-01T04:30:32;-2.40;99.90
51884;DHT22;37915;53.254;6.598;2023-03-01T04:33:10;-2.80;99.90
51884;DHT22;37915;53.254;6.598;2023-03-01T04:35:36;-1.80;99.90
51884;DHT22;37915;53.254;6.598;2023-03-01T04:38:02;-1.90;99.90
51884;DHT22;37915;53.254;6.598;2023-03-01T04:40:27;-2.80;99.90
51884;DHT22;37915;53.254;6.598;2023-03-01T04:42:53;-1.80;99.90
51884;DHT22;37915;53.254;6.598;2023-03-01T04:45:19;-2.80;99.90
51884;DHT22;37915;53.254;6.598;2023-03-01T04:47:45;-2.80;99.90
51884;DHT22;37915;53.254;6.598;2023-03-01T04:50:12;-1.50;99.90
51884;DHT22;37915;53.254;6.598;2023-03-01T04:52:38;-2.80;99.90
51884;DHT22;37915;53.254;6.598;2023-03-01T04:55:04;-2.80;99.90
51884;DHT22;37915;53.254;6.598;2023-03-01T04:57:30;-2.80;99.90
51884;DHT22;37915;53.254;6.598;2023-03-01T04:59:55;-2.80;99.90
51884;DHT22;37915;53.254;6.598;2023-03-01T05:02:21;-2.80;99.90
51884;DHT22;37915;53.254;6.598;2023-03-01T05:04:46;-2.30;99.90
51884;DHT22;37915;53.254;6.598;2023-03-01T05:07:12;-2.80;99.90
51884;DHT22;37915;53.254;6.598;2023-03-01T05:09:38;-2.80;99.90
51884;DHT22;37915;53.254;6.598;2023-03-01T05:12:04;-2.70;99.90
51884;DHT22;37915;53.254;6.598;2023-03-01T05:14:29;-2.70;99.90
51884;DHT22;37915;53.254;6.598;2023-03-01T05:16:55;-1.70;99.90
51884;DHT22;37915;53.254;6.598;2023-03-01T05:19:29;-2.30;99.90
51884;DHT22;37915;53.254;6.598;2023-03-01T05:21:56;-1.50;99.90
51884;DHT22;37915;53.254;6.598;2023-03-01T05:24:32;-2.60;99.90
51884;DHT22;37915;53.254;6.598;2023-03-01T05:26:58;-2.60;99.90
51884;DHT22;37915;53.254;6.598;2023-03-01T05:29:24;-1.70;99.90
51884;DHT22;37915;53.254;6.598;2023-03-01T05:31:54;-2.60;99.90
51884;DHT22;37915;53.254;6.598;2023-03-01T05:36:52;-2.60;99.90
51884;DHT22;37915;53.254;6.598;2023-03-01T05:39:22;-2.60;99.90
51884;DHT22;37915;53.254;6.598;2023-03-01T05:41:48;-2.50;99.90
51884;DHT22;37915;53.254;6.598;2023-03-01T05:44:14;-1.80;99.90
51884;DHT22;37915;53.254;6.598;2023-03-01T05:46:39;-1.90;99.90
51884;DHT22;37915;53.254;6.598;2023-03-01T05:49:05;-2.50;99.90
51884;DHT22;37915;53.254;6.598;2023-03-01T05:51:30;-2.50;99.90
51884;DHT22;37915;53.254;6.598;2023-03-01T05:53:58;-2.50;99.90
51884;DHT22;37915;53.254;6.598;2023-03-01T05:56:24;-2.50;99.90
51884;DHT22;37915;53.254;6.598;2023-03-01T05:58:49;-1.20;99.90
51884;DHT22;37915;53.254;6.598;2023-03-01T06:01:15;-2.60;99.90
51884;DHT22;37915;53.254;6.598;2023-03-01T06:03:41;-2.60;99.90
51884;DHT22;37915;53.254;6.598;2023-03-01T06:06:06;-2.00;99.90
51884;DHT22;37915;53.254;6.598;2023-03-01T06:08:32;-2.60;99.90
51884;DHT22;37915;53.254;6.598;2023-03-01T06:10:57;-2.80;99.90
51884;DHT22;37915;53.254;6.598;2023-03-01T06:13:23;-2.70;99.90
51884;DHT22;37915;53.254;6.598;2023-03-01T06:15:49;-2.70;99.90
51884;DHT22;37915;53.254;6.598;2023-03-01T06:18:15;-2.00;99.90
51884;DHT22;37915;53.254;6.598;2023-03-01T06:20:40;-2.70;99.90
51884;DHT22;37915;53.254;6.598;2023-03-01T06:23:06;-2.80;99.90
51884;DHT22;37915;53.254;6.598;2023-03-01T06:25:32;-1.70;99.90
51884;DHT22;37915;53.254;6.598;2023-03-01T06:27:57;-2.80;99.90
51884;DHT22;37915;53.254;6.598;2023-03-01T06:30:24;-2.20;99.90
51884;DHT22;37915;53.254;6.598;2023-03-01T06:32:49;-1.70;99.90
51884;DHT22;37915;53.254;6.598;2023-03-01T06:35:16;-2.70;99.90
51884;DHT22;37915;53.254;6.598;2023-03-01T06:37:45;-2.60;99.90
51884;DHT22;37915;53.254;6.598;2023-03-01T06:40:11;-2.60;99.90
51884;DHT22;37915;53.254;6.598;2023-03-01T06:42:37;-2.50;99.90
51884;DHT22;37915;53.254;6.598;2023-03-01T06:45:04;-2.50;99.90
51884;DHT22;37915;53.254;6.598;2023-03-01T06:47:30;-2.40;99.90
51884;DHT22;37915;53.254;6.598;2023-03-01T06:49:56;-2.10;99.90
51884;DHT22;37915;53.254;6.598;2023-03-01T06:52:21;-1.70;99.90
51884;DHT22;37915;53.254;6.598;2023-03-01T06:54:47;-2.40;99.90
51884;DHT22;37915;53.254;6.598;2023-03-01T06:57:13;-1.90;99.90
51884;DHT22;37915;53.254;6.598;2023-03-01T06:59:38;-1.00;99.90
51884;DHT22;37915;53.254;6.598;2023-03-01T07:02:04;-1.40;99.90
51884;DHT22;37915;53.254;6.598;2023-03-01T07:04:29;-1.00;99.90
51884;DHT22;37915;53.254;6.598;2023-03-01T07:06:55;-2.10;99.90
51884;DHT22;37915;53.254;6.598;2023-03-01T07:09:22;-2.60;99.90
51884;DHT22;37915;53.254;6.598;2023-03-01T07:11:48;-2.60;99.90
51884;DHT22;37915;53.254;6.598;2023-03-01T07:14:14;-1.90;99.90
51884;DHT22;37915;53.254;6.598;2023-03-01T07:16:39;-1.30;99.90
51884;DHT22;37915;53.254;6.598;2023-03-01T07:19:05;-1.10;99.90
51884;DHT22;37915;53.254;6.598;2023-03-01T07:21:31;-2.50;99.90
51884;DHT22;37915;53.254;6.598;2023-03-01T07:23:56;-1.20;99.90
51884;DHT22;37915;53.254;6.598;2023-03-01T07:26:22;-2.40;99.90
51884;DHT22;37915;53.254;6.598;2023-03-01T07:28:48;-2.40;99.90
51884;DHT22;37915;53.254;6.598;2023-03-01T07:31:13;-2.30;99.90
51884;DHT22;37915;53.254;6.598;2023-03-01T07:33:39;-2.20;99.90
51884;DHT22;37915;53.254;6.598;2023-03-01T07:36:05;-1.70;99.90
51884;DHT22;37915;53.254;6.598;2023-03-01T07:38:30;-2.00;99.90
51884;DHT22;37915;53.254;6.598;2023-03-01T07:41:00;-0.30;99.90
51884;DHT22;37915;53.254;6.598;2023-03-01T07:43:26;-1.90;99.90
51884;DHT22;37915;53.254;6.598;2023-03-01T07:45:52;-0.20;99.90
51884;DHT22;37915;53.254;6.598;2023-03-01T07:48:17;-1.80;99.90
51884;DHT22;37915;53.254;6.598;2023-03-01T07:50:43;-1.70;99.90
51884;DHT22;37915;53.254;6.598;2023-03-01T07:53:09;-0.80;99.90
51884;DHT22;37915;53.254;6.598;2023-03-01T07:55:35;-1.60;99.90
51884;DHT22;37915;53.254;6.598;2023-03-01T07:58:01;-1.50;99.90
51884;DHT22;37915;53.254;6.598;2023-03-01T08:00:26;-0.20;99.90
51884;DHT22;37915;53.254;6.598;2023-03-01T08:02:52;-1.40;99.90
51884;DHT22;37915;53.254;6.598;2023-03-01T08:05:18;-1.30;99.90
51884;DHT22;37915;53.254;6.598;2023-03-01T08:07:43;-1.30;99.90
51884;DHT22;37915;53.254;6.598;2023-03-01T08:10:09;-1.10;99.90
51884;DHT22;37915;53.254;6.598;2023-03-01T08:12:35;-1.00;99.90
51884;DHT22;37915;53.254;6.598;2023-03-01T08:15:00;-1.00;99.90
51884;DHT22;37915;53.254;6.598;2023-03-01T08:17:26;-0.90;99.90
51884;DHT22;37915;53.254;6.598;2023-03-01T08:19:51;-0.10;99.90
51884;DHT22;37915;53.254;6.598;2023-03-01T08:22:17;0.50;99.90
51884;DHT22;37915;53.254;6.598;2023-03-01T08:24:42;-0.50;99.90
51884;DHT22;37915;53.254;6.598;2023-03-01T08:27:08;-0.40;99.90
51884;DHT22;37915;53.254;6.598;2023-03-01T08:29:34;-0.30;99.90
51884;DHT22;37915;53.254;6.598;2023-03-01T08:31:59;0.20;99.90
51884;DHT22;37915;53.254;6.598;2023-03-01T08:34:25;-0.20;99.90
51884;DHT22;37915;53.254;6.598;2023-03-01T08:36:50;0.90;99.90
51884;DHT22;37915;53.254;6.598;2023-03-01T08:39:18;0.90;99.90
51884;DHT22;37915;53.254;6.598;2023-03-01T08:41:44;0.90;99.90
51884;DHT22;37915;53.254;6.598;2023-03-01T08:44:10;0.20;99.90
51884;DHT22;37915;53.254;6.598;2023-03-01T08:46:38;0.30;99.90
51884;DHT22;37915;53.254;6.598;2023-03-01T08:49:07;0.40;99.90
51884;DHT22;37915;53.254;6.598;2023-03-01T08:51:33;0.50;99.90
51884;DHT22;37915;53.254;6.598;2023-03-01T08:54:11;0.60;99.90
51884;DHT22;37915;53.254;6.598;2023-03-01T08:56:37;0.70;99.90
51884;DHT22;37915;53.254;6.598;2023-03-01T08:59:03;1.80;99.90
51884;DHT22;37915;53.254;6.598;2023-03-01T09:01:29;1.50;99.90
51884;DHT22;37915;53.254;6.598;2023-03-01T09:03:54;1.20;99.90
51884;DHT22;37915;53.254;6.598;2023-03-01T09:06:20;2.80;99.90
51884;DHT22;37915;53.254;6.598;2023-03-01T09:08:47;2.70;99.90
51884;DHT22;37915;53.254;6.598;2023-03-01T09:11:14;1.50;99.90
51884;DHT22;37915;53.254;6.598;2023-03-01T09:13:41;2.90;99.90
51884;DHT22;37915;53.254;6.598;2023-03-01T09:16:07;3.20;99.90
51884;DHT22;37915;53.254;6.598;2023-03-01T09:18:33;2.00;99.90
51884;DHT22;37915;53.254;6.598;2023-03-01T09:21:03;2.60;99.90
51884;DHT22;37915;53.254;6.598;2023-03-01T09:23:39;2.30;99.90
51884;DHT22;37915;53.254;6.598;2023-03-01T09:26:06;2.40;99.90
51884;DHT22;37915;53.254;6.598;2023-03-01T09:28:31;2.60;99.90
51884;DHT22;37915;53.254;6.598;2023-03-01T09:30:57;3.10;99.90
51884;DHT22;37915;53.254;6.598;2023-03-01T09:33:23;4.00;99.90
51884;DHT22;37915;53.254;6.598;2023-03-01T09:35:49;3.00;99.90
51884;DHT22;37915;53.254;6.598;2023-03-01T09:38:15;3.20;99.90
51884;DHT22;37915;53.254;6.598;2023-03-01T09:40:44;3.30;99.90
51884;DHT22;37915;53.254;6.598;2023-03-01T09:45:40;4.10;99.90
51884;DHT22;37915;53.254;6.598;2023-03-01T09:48:11;3.80;99.90
51884;DHT22;37915;53.254;6.598;2023-03-01T09:50:39;4.00;99.90
51884;DHT22;37915;53.254;6.598;2023-03-01T09:53:38;4.20;99.90
51884;DHT22;37915;53.254;6.598;2023-03-01T09:56:02;4.30;99.90
51884;DHT22;37915;53.254;6.598;2023-03-01T10:01:05;4.60;99.90
51884;DHT22;37915;53.254;6.598;2023-03-01T10:03:35;4.80;99.90
51884;DHT22;37915;53.254;6.598;2023-03-01T10:06:10;5.00;99.90
51884;DHT22;37915;53.254;6.598;2023-03-01T10:11:17;5.30;99.90
51884;DHT22;37915;53.254;6.598;2023-03-01T10:16:33;5.60;99.90
51884;DHT22;37915;53.254;6.598;2023-03-01T10:19:03;5.80;99.90
51884;DHT22;37915;53.254;6.598;2023-03-01T10:21:29;5.90;99.90
51884;DHT22;37915;53.254;6.598;2023-03-01T10:24:01;5.90;99.90
51884;DHT22;37915;53.254;6.598;2023-03-01T10:26:47;6.00;99.90
51884;DHT22;37915;53.254;6.598;2023-03-01T10:29:13;6.10;99.90
51884;DHT22;37915;53.254;6.598;2023-03-01T10:31:43;6.10;99.90
51884;DHT22;37915;53.254;6.598;2023-03-01T10:34:11;6.20;99.90
51884;DHT22;37915;53.254;6.598;2023-03-01T10:36:37;6.30;99.90
51884;DHT22;37915;53.254;6.598;2023-03-01T10:39:05;6.40;99.90
51884;DHT22;37915;53.254;6.598;2023-03-01T10:41:35;6.50;99.90
51884;DHT22;37915;53.254;6.598;2023-03-01T10:44:09;6.90;99.90
51884;DHT22;37915;53.254;6.598;2023-03-01T10:46:58;7.30;99.90
51884;DHT22;37915;53.254;6.598;2023-03-01T10:49:25;7.40;99.90
51884;DHT22;37915;53.254;6.598;2023-03-01T10:51:52;7.80;99.90
51884;DHT22;37915;53.254;6.598;2023-03-01T10:54:32;7.70;99.90
51884;DHT22;37915;53.254;6.598;2023-03-01T10:57:04;7.60;99.90
51884;DHT22;37915;53.254;6.598;2023-03-01T10:59:34;7.50;99.90
51884;DHT22;37915;53.254;6.598;2023-03-01T11:02:04;7.40;99.90
51884;DHT22;37915;53.254;6.598;2023-03-01T11:04:37;7.30;99.90
51884;DHT22;37915;53.254;6.598;2023-03-01T11:07:03;7.30;99.90
51884;DHT22;37915;53.254;6.598;2023-03-01T11:09:32;7.30;99.90
51884;DHT22;37915;53.254;6.598;2023-03-01T11:12:03;7.10;99.90
51884;DHT22;37915;53.254;6.598;2023-03-01T11:14:35;7.10;99.90
51884;DHT22;37915;53.254;6.598;2023-03-01T11:17:06;7.00;99.90
51884;DHT22;37915;53.254;6.598;2023-03-01T11:19:37;6.90;99.90
51884;DHT22;37915;53.254;6.598;2023-03-01T11:24:36;6.70;99.90
51884;DHT22;37915;53.254;6.598;2023-03-01T11:27:04;6.60;99.90
51884;DHT22;37915;53.254;6.598;2023-03-01T11:32:03;6.40;99.90
51884;DHT22;37915;53.254;6.598;2023-03-01T11:34:51;6.30;99.90
51884;DHT22;37915;53.254;6.598;2023-03-01T11:37:41;6.20;99.90
51884;DHT22;37915;53.254;6.598;2023-03-01T11:40:20;6.20;99.90
51884;DHT22;37915;53.254;6.598;2023-03-01T11:43:01;6.20;99.90
51884;DHT22;37915;53.254;6.598;2023-03-01T11:45:31;6.10;99.90
51884;DHT22;37915;53.254;6.598;2023-03-01T11:50:44;6.00;99.90
51884;DHT22;37915;53.254;6.598;2023-03-01T12:12:50;5.80;99.90
51884;DHT22;37915;53.254;6.598;2023-03-01T12:18:08;6.10;99.90
51884;DHT22;37915;53.254;6.598;2023-03-01T12:20:47;6.10;99.90
51884;DHT22;37915;53.254;6.598;2023-03-01T12:28:27;6.20;99.90
51884;DHT22;37915;53.254;6.598;2023-03-01T12:38:33;6.30;99.90
51884;DHT22;37915;53.254;6.598;2023-03-01T12:49:00;6.30;99.90
51884;DHT22;37915;53.254;6.598;2023-03-01T12:51:30;6.40;99.90
51884;DHT22;37915;53.254;6.598;2023-03-01T12:53:57;6.60;99.90
51884;DHT22;37915;53.254;6.598;2023-03-01T12:56:25;6.40;99.90
51884;DHT22;37915;53.254;6.598;2023-03-01T12:58:57;6.40;99.90
51884;DHT22;37915;53.254;6.598;2023-03-01T13:06:51;6.60;99.90
51884;DHT22;37915;53.254;6.598;2023-03-01T13:11:46;6.60;99.90
51884;DHT22;37915;53.254;6.598;2023-03-01T13:16:48;6.70;99.90
51884;DHT22;37915;53.254;6.598;2023-03-01T13:19:18;6.70;99.90
51884;DHT22;37915;53.254;6.598;2023-03-01T13:21:45;6.70;99.90
51884;DHT22;37915;53.254;6.598;2023-03-01T13:24:27;6.90;99.90
51884;DHT22;37915;53.254;6.598;2023-03-01T13:29:51;5.70;99.90
51884;DHT22;37915;53.254;6.598;2023-03-01T13:34:57;6.70;99.90
51884;DHT22;37915;53.254;6.598;2023-03-01T13:37:44;6.90;99.90
51884;DHT22;37915;53.254;6.598;2023-03-01T13:42:43;6.90;99.90
51884;DHT22;37915;53.254;6.598;2023-03-01T13:45:21;6.90;99.90
51884;DHT22;37915;53.254;6.598;2023-03-01T13:47:55;6.90;99.90
51884;DHT22;37915;53.254;6.598;2023-03-01T13:50:27;6.90;99.90
51884;DHT22;37915;53.254;6.598;2023-03-01T13:53:00;7.00;99.90
51884;DHT22;37915;53.254;6.598;2023-03-01T13:55:40;7.20;99.90
51884;DHT22;37915;53.254;6.598;2023-03-01T13:58:18;7.70;99.90
51884;DHT22;37915;53.254;6.598;2023-03-01T14:00:47;7.00;99.90
51884;DHT22;37915;53.254;6.598;2023-03-01T14:05:50;8.10;99.90
51884;DHT22;37915;53.254;6.598;2023-03-01T14:08:24;7.20;99.90
51884;DHT22;37915;53.254;6.598;2023-03-01T14:19:27;7.20;99.90
51884;DHT22;37915;53.254;6.598;2023-03-01T14:21:32;7.30;99.90
51884;DHT22;37915;53.254;6.598;2023-03-01T14:24:00;7.40;99.90
51884;DHT22;37915;53.254;6.598;2023-03-01T14:26:28;7.70;99.90
51884;DHT22;37915;53.254;6.598;2023-03-01T14:29:00;7.60;99.90
51884;DHT22;37915;53.254;6.598;2023-03-01T14:31:34;7.70;99.90
51884;DHT22;37915;53.254;6.598;2023-03-01T14:34:04;7.70;99.90
51884;DHT22;37915;53.254;6.598;2023-03-01T14:36:30;7.80;99.90
51884;DHT22;37915;53.254;6.598;2023-03-01T14:38:57;7.70;99.90
51884;DHT22;37915;53.254;6.598;2023-03-01T14:41:38;7.80;99.90
51884;DHT22;37915;53.254;6.598;2023-03-01T14:44:06;7.50;99.90
51884;DHT22;37915;53.254;6.598;2023-03-01T14:46:33;7.40;99.90
51884;DHT22;37915;53.254;6.598;2023-03-01T14:49:05;7.80;99.90
51884;DHT22;37915;53.254;6.598;2023-03-01T14:51:36;7.80;99.90
51884;DHT22;37915;53.254;6.598;2023-03-01T14:54:02;7.80;99.90
51884;DHT22;37915;53.254;6.598;2023-03-01T14:56:28;7.80;99.90
51884;DHT22;37915;53.254;6.598;2023-03-01T14:59:08;7.80;99.90
51884;DHT22;37915;53.254;6.598;2023-03-01T15:01:34;8.00;99.90
51884;DHT22;37915;53.254;6.598;2023-03-01T15:04:10;7.90;99.90
51884;DHT22;37915;53.254;6.598;2023-03-01T15:06:37;7.90;99.90
51884;DHT22;37915;53.254;6.598;2023-03-01T15:09:03;9.00;99.90
51884;DHT22;37915;53.254;6.598;2023-03-01T15:11:29;7.90;99.90
51884;DHT22;37915;53.254;6.598;2023-03-01T15:13:55;7.90;99.90
51884;DHT22;37915;53.254;6.598;2023-03-01T15:16:23;7.90;99.90
51884;DHT22;37915;53.254;6.598;2023-03-01T15:18:50;7.90;99.90
51884;DHT22;37915;53.254;6.598;2023-03-01T15:21:32;7.80;99.90
51884;DHT22;37915;53.254;6.598;2023-03-01T15:24:15;7.90;99.90
51884;DHT22;37915;53.254;6.598;2023-03-01T15:29:20;7.70;99.90
51884;DHT22;37915;53.254;6.598;2023-03-01T15:34:29;7.50;99.90
51884;DHT22;37915;53.254;6.598;2023-03-01T15:36:57;8.40;99.90
51884;DHT22;37915;53.254;6.598;2023-03-01T15:39:40;7.40;99.90
51884;DHT22;37915;53.254;6.598;2023-03-01T15:42:13;7.30;99.90
51884;DHT22;37915;53.254;6.598;2023-03-01T15:45:07;7.20;99.90
51884;DHT22;37915;53.254;6.598;2023-03-01T15:47:33;7.10;99.90
51884;DHT22;37915;53.254;6.598;2023-03-01T15:49:59;7.10;99.90
51884;DHT22;37915;53.254;6.598;2023-03-01T15:52:35;7.00;99.90
51884;DHT22;37915;53.254;6.598;2023-03-01T15:57:42;6.80;99.90
51884;DHT22;37915;53.254;6.598;2023-03-01T16:00:11;6.70;99.90
51884;DHT22;37915;53.254;6.598;2023-03-01T16:02:41;6.60;99.90
51884;DHT22;37915;53.254;6.598;2023-03-01T16:05:21;6.50;99.90
51884;DHT22;37915;53.254;6.598;2023-03-01T16:07:48;6.50;99.90
51884;DHT22;37915;53.254;6.598;2023-03-01T16:10:14;6.40;99.90
51884;DHT22;37915;53.254;6.598;2023-03-01T16:12:40;6.30;99.90
51884;DHT22;37915;53.254;6.598;2023-03-01T16:17:55;6.10;99.90
51884;DHT22;37915;53.254;6.598;2023-03-01T16:20:21;6.10;99.90
51884;DHT22;37915;53.254;6.598;2023-03-01T16:22:47;6.00;99.90
51884;DHT22;37915;53.254;6.598;2023-03-01T16:25:14;5.90;99.90
51884;DHT22;37915;53.254;6.598;2023-03-01T16:27:44;5.90;99.90
51884;DHT22;37915;53.254;6.598;2023-03-01T16:30:10;5.80;99.90
51884;DHT22;37915;53.254;6.598;2023-03-01T16:32:43;5.70;99.90
51884;DHT22;37915;53.254;6.598;2023-03-01T16:35:10;5.70;99.90
51884;DHT22;37915;53.254;6.598;2023-03-01T16:37:36;5.70;99.90
51884;DHT22;37915;53.254;6.598;2023-03-01T16:40:02;5.60;99.90
51884;DHT22;37915;53.254;6.598;2023-03-01T16:42:35;5.50;99.90
51884;DHT22;37915;53.254;6.598;2023-03-01T16:45:01;5.50;99.90
51884;DHT22;37915;53.254;6.598;2023-03-01T16:47:27;5.70;99.90
51884;DHT22;37915;53.254;6.598;2023-03-01T16:49:53;5.30;99.90
51884;DHT22;37915;53.254;6.598;2023-03-01T16:52:19;5.20;99.90
51884;DHT22;37915;53.254;6.598;2023-03-01T16:54:45;5.50;99.90
51884;DHT22;37915;53.254;6.598;2023-03-01T16:57:11;6.10;99.90
51884;DHT22;37915;53.254;6.598;2023-03-01T16:59:36;5.30;99.90
51884;DHT22;37915;53.254;6.598;2023-03-01T17:02:03;5.00;99.90
51884;DHT22;37915;53.254;6.598;2023-03-01T17:04:29;4.90;99.90
51884;DHT22;37915;53.254;6.598;2023-03-01T17:06:54;5.90;99.90
51884;DHT22;37915;53.254;6.598;2023-03-01T17:09:20;5.60;99.90
51884;DHT22;37915;53.254;6.598;2023-03-01T17:11:47;4.80;99.90
51884;DHT22;37915;53.254;6.598;2023-03-01T17:14:13;4.70;99.90
51884;DHT22;37915;53.254;6.598;2023-03-01T17:16:40;4.80;99.90
51884;DHT22;37915;53.254;6.598;2023-03-01T17:19:06;4.60;99.90
51884;DHT22;37915;53.254;6.598;2023-03-01T17:21:32;5.00;99.90
51884;DHT22;37915;53.254;6.598;2023-03-01T17:23:57;4.90;99.90
51884;DHT22;37915;53.254;6.598;2023-03-01T17:26:23;4.90;99.90
51884;DHT22;37915;53.254;6.598;2023-03-01T17:28:48;4.60;99.90
51884;DHT22;37915;53.254;6.598;2023-03-01T17:31:17;4.70;99.90
51884;DHT22;37915;53.254;6.598;2023-03-01T17:33:43;4.00;99.90
51884;DHT22;37915;53.254;6.598;2023-03-01T17:36:09;4.50;99.90
51884;DHT22;37915;53.254;6.598;2023-03-01T17:38:34;3.80;99.90
51884;DHT22;37915;53.254;6.598;2023-03-01T17:41:02;4.00;99.90
51884;DHT22;37915;53.254;6.598;2023-03-01T17:43:27;3.70;99.90